sensor_id;sensor_type;location;lat;lon;timestamp;pressure;altitude;pressure_sealevel;temperature;humidity
37634;BME280;32048;49.902;22.508;2023-02-21T00:01:43;97687.41;;;9.06;92.74
37634;BME280;32048;49.902;22.508;2023-02-21T00:04:29;97682.31;;;9.03;92.79
37634;BME280;32048;49.902;22.508;2023-02-21T00:07:15;97677.06;;;9.03;94.04
37634;BME280;32048;49.902;22.508;2023-02-21T00:10:01;97683.44;;;8.99;94.69
37634;BME280;32048;49.902;22.508;2023-02-21T00:12:47;97680.06;;;8.97;95.19
37634;BME280;32048;49.902;22.508;2023-02-21T00:15:32;97670.69;;;8.92;95.73
37634;BME280;32048;49.902;22.508;2023-02-21T00:18:18;97700.66;;;8.90;96.87
37634;BME280;32048;49.902;22.508;2023-02-21T00:21:04;97648.50;;;8.82;98.04
37634;BME280;32048;49.902;22.508;2023-02-21T00:23:50;97696.25;;;8.76;99.23
37634;BME280;32048;49.902;22.508;2023-02-21T00:26:36;97685.94;;;8.73;100.00
37634;BME280;32048;49.902;22.508;2023-02-21T00:29:22;97690.53;;;8.69;100.00
37634;BME280;32048;49.902;22.508;2023-02-21T00:32:07;97681.31;;;8.62;100.00
37634;BME280;32048;49.902;22.508;2023-02-21T00:34:53;97663.25;;;8.56;100.00
37634;BME280;32048;49.902;22.508;2023-02-21T00:37:39;97671.56;;;8.50;100.00
37634;BME280;32048;49.902;22.508;2023-02-21T00:40:25;97694.47;;;8.48;100.00
37634;BME280;32048;49.902;22.508;2023-02-21T00:43:10;97703.56;;;8.42;100.00
37634;BME280;32048;49.902;22.508;2023-02-21T00:45:56;97688.22;;;8.35;100.00
37634;BME280;32048;49.902;22.508;2023-02-21T00:48:42;97669.06;;;8.32;100.00
37634;BME280;32048;49.902;22.508;2023-02-21T00:51:27;97698.06;;;8.31;100.00
37634;BME280;32048;49.902;22.508;2023-02-21T00:54:13;97692.19;;;8.27;100.00
37634;BME280;32048;49.902;22.508;2023-02-21T00:56:59;97680.03;;;8.25;100.00
37634;BME280;32048;49.902;22.508;2023-02-21T00:59:45;97692.34;;;8.24;100.00
37634;BME280;32048;49.902;22.508;2023-02-21T01:02:31;97695.16;;;8.21;100.00
37634;BME280;32048;49.902;22.508;2023-02-21T01:05:16;97690.94;;;8.19;100.00
37634;BME280;32048;49.902;22.508;2023-02-21T01:08:02;97658.44;;;8.20;100.00
37634;BME280;32048;49.902;22.508;2023-02-21T01:10:48;97669.91;;;8.19;100.00
37634;BME280;32048;49.902;22.508;2023-02-21T01:13:34;97665.66;;;8.16;100.00
37634;BME280;32048;49.902;22.508;2023-02-21T01:16:19;97684.09;;;8.16;100.00
37634;BME280;32048;49.902;22.508;2023-02-21T01:19:05;97670.66;;;8.21;100.00
37634;BME280;32048;49.902;22.508;2023-02-21T01:21:50;97677.50;;;8.23;100.00
37634;BME280;32048;49.902;22.508;2023-02-21T01:24:36;97673.84;;;8.26;100.00
37634;BME280;32048;49.902;22.508;2023-02-21T01:27:22;97682.38;;;8.29;100.00
37634;BME280;32048;49.902;22.508;2023-02-21T01:30:08;97657.78;;;8.30;100.00
37634;BME280;32048;49.902;22.508;2023-02-21T01:32:54;97668.22;;;8.32;100.00
37634;BME280;32048;49.902;22.508;2023-02-21T01:35:39;97680.16;;;8.38;100.00
37634;BME280;32048;49.902;22.508;2023-02-21T01:38:25;97672.34;;;8.36;100.00
37634;BME280;32048;49.902;22.508;2023-02-21T01:41:11;97681.09;;;8.37;100.00
37634;BME280;32048;49.902;22.508;2023-02-21T01:44:05;97677.50;;;8.38;100.00
37634;BME280;32048;49.902;22.508;2023-02-21T01:46:51;97660.81;;;8.39;100.00
37634;BME280;32048;49.902;22.508;2023-02-21T01:49:38;97666.75;;;8.42;100.00
37634;BME280;32048;49.902;22.508;2023-02-21T01:52:25;97647.22;;;8.46;100.00
37634;BME280;32048;49.902;22.508;2023-02-21T01:55:11;97659.53;;;8.46;100.00
37634;BME280;32048;49.902;22.508;2023-02-21T01:57:56;97648.88;;;8.47;100.00
37634;BME280;32048;49.902;22.508;2023-02-21T02:00:43;97639.59;;;8.42;100.00
37634;BME280;32048;49.902;22.508;2023-02-21T02:03:29;97609.34;;;8.49;100.00
37634;BME280;32048;49.902;22.508;2023-02-21T02:06:15;97640.91;;;8.49;100.00
37634;BME280;32048;49.902;22.508;2023-02-21T02:09:28;97647.75;;;8.51;100.00
37634;BME280;32048;49.902;22.508;2023-02-21T02:31:24;97641.00;;;8.47;100.00
37634;BME280;32048;49.902;22.508;2023-02-21T02:36:52;97642.97;;;8.44;100.00
37634;BME280;32048;49.902;22.508;2023-02-21T02:45:10;97633.84;;;8.49;100.00
37634;BME280;32048;49.902;22.508;2023-02-21T02:47:43;97611.13;;;8.48;100.00
37634;BME280;32048;49.902;22.508;2023-02-21T02:50:11;97607.25;;;8.54;100.00
37634;BME280;32048;49.902;22.508;2023-02-21T02:52:51;97616.78;;;8.57;100.00
37634;BME280;32048;49.902;22.508;2023-02-21T02:56:01;97614.97;;;8.57;100.00
37634;BME280;32048;49.902;22.508;2023-02-21T02:58:36;97614.03;;;8.58;100.00
37634;BME280;32048;49.902;22.508;2023-02-21T03:03:45;97611.59;;;8.55;99.89
37634;BME280;32048;49.902;22.508;2023-02-21T03:09:00;97611.84;;;8.65;99.32
37634;BME280;32048;49.902;22.508;2023-02-21T03:11:28;97611.69;;;8.68;98.43
37634;BME280;32048;49.902;22.508;2023-02-21T03:14:08;97615.25;;;8.67;99.15
37634;BME280;32048;49.902;22.508;2023-02-21T03:16:43;97607.53;;;8.64;99.06
37634;BME280;32048;49.902;22.508;2023-02-21T03:19:24;97599.81;;;8.61;99.42
37634;BME280;32048;49.902;22.508;2023-02-21T03:21:59;97612.97;;;8.61;99.71
37634;BME280;32048;49.902;22.508;2023-02-21T03:24:28;97628.13;;;8.57;99.85
37634;BME280;32048;49.902;22.508;2023-02-21T03:26:58;97591.00;;;8.62;99.61
37634;BME280;32048;49.902;22.508;2023-02-21T03:29:28;97622.59;;;8.62;99.78
37634;BME280;32048;49.902;22.508;2023-02-21T03:32:00;97621.84;;;8.60;99.95
37634;BME280;32048;49.902;22.508;2023-02-21T03:34:39;97609.44;;;8.62;99.75
37634;BME280;32048;49.902;22.508;2023-02-21T03:37:21;97615.91;;;8.56;99.93
37634;BME280;32048;49.902;22.508;2023-02-21T03:39:55;97618.66;;;8.55;100.00
37634;BME280;32048;49.902;22.508;2023-02-21T03:42:22;97623.91;;;8.55;100.00
37634;BME280;32048;49.902;22.508;2023-02-21T03:44:49;97623.25;;;8.51;100.00
37634;BME280;32048;49.902;22.508;2023-02-21T03:47:16;97620.53;;;8.52;100.00
37634;BME280;32048;49.902;22.508;2023-02-21T03:49:43;97618.72;;;8.53;100.00
37634;BME280;32048;49.902;22.508;2023-02-21T03:52:11;97631.13;;;8.51;100.00
37634;BME280;32048;49.902;22.508;2023-02-21T03:54:39;97620.69;;;8.49;100.00
37634;BME280;32048;49.902;22.508;2023-02-21T03:57:06;97611.97;;;8.49;100.00
37634;BME280;32048;49.902;22.508;2023-02-21T03:59:33;97637.25;;;8.51;100.00
37634;BME280;32048;49.902;22.508;2023-02-21T04:02:00;97601.53;;;8.47;100.00
37634;BME280;32048;49.902;22.508;2023-02-21T04:04:28;97617.44;;;8.46;100.00
37634;BME280;32048;49.902;22.508;2023-02-21T04:06:55;97607.53;;;8.49;100.00
37634;BME280;32048;49.902;22.508;2023-02-21T04:09:22;97611.22;;;8.47;100.00
37634;BME280;32048;49.902;22.508;2023-02-21T04:11:51;97612.25;;;8.44;100.00
37634;BME280;32048;49.902;22.508;2023-02-21T04:14:18;97624.47;;;8.45;100.00
37634;BME280;32048;49.902;22.508;2023-02-21T04:16:45;97604.38;;;8.44;100.00
37634;BME280;32048;49.902;22.508;2023-02-21T04:19:13;97598.25;;;8.44;100.00
37634;BME280;32048;49.902;22.508;2023-02-21T04:21:39;97605.13;;;8.46;100.00
37634;BME280;32048;49.902;22.508;2023-02-21T04:24:07;97609.41;;;8.47;100.00
37634;BME280;32048;49.902;22.508;2023-02-21T04:26:34;97593.84;;;8.44;100.00
37634;BME280;32048;49.902;22.508;2023-02-21T04:29:01;97611.97;;;8.49;100.00
37634;BME280;32048;49.902;22.508;2023-02-21T04:31:28;97610.38;;;8.46;100.00
37634;BME280;32048;49.902;22.508;2023-02-21T04:33:56;97621.84;;;8.45;100.00
37634;BME280;32048;49.902;22.508;2023-02-21T04:36:37;97617.78;;;8.40;100.00
37634;BME280;32048;49.902;22.508;2023-02-21T04:39:04;97621.63;;;8.34;100.00
37634;BME280;32048;49.902;22.508;2023-02-21T04:41:31;97598.13;;;8.31;100.00
37634;BME280;32048;49.902;22.508;2023-02-21T04:43:59;97615.78;;;8.29;100.00
37634;BME280;32048;49.902;22.508;2023-02-21T04:46:26;97623.50;;;8.32;100.00
37634;BME280;32048;49.902;22.508;2023-02-21T04:48:53;97614.13;;;8.28;100.00
37634;BME280;32048;49.902;22.508;2023-02-21T04:51:22;97615.78;;;8.29;100.00
37634;BME280;32048;49.902;22.508;2023-02-21T04:53:51;97617.22;;;8.35;100.00
37634;BME280;32048;49.902;22.508;2023-02-21T04:56:21;97613.06;;;8.30;100.00
37634;BME280;32048;49.902;22.508;2023-02-21T04:58:49;97604.34;;;8.30;100.00
37634;BME280;32048;49.902;22.508;2023-02-21T05:01:17;97611.19;;;8.32;100.00
37634;BME280;32048;49.902;22.508;2023-02-21T05:03:45;97597.00;;;8.35;100.00
37634;BME280;32048;49.902;22.508;2023-02-21T05:06:18;97602.06;;;8.38;100.00
37634;BME280;32048;49.902;22.508;2023-02-21T05:08:45;97581.97;;;8.37;100.00
37634;BME280;32048;49.902;22.508;2023-02-21T05:11:12;97606.41;;;8.39;100.00
37634;BME280;32048;49.902;22.508;2023-02-21T05:13:41;97595.13;;;8.37;100.00
37634;BME280;32048;49.902;22.508;2023-02-21T05:16:09;97600.22;;;8.40;100.00
37634;BME280;32048;49.902;22.508;2023-02-21T05:18:36;97605.75;;;8.36;100.00
37634;BME280;32048;49.902;22.508;2023-02-21T05:21:07;97590.78;;;8.36;100.00
37634;BME280;32048;49.902;22.508;2023-02-21T05:23:35;97601.31;;;8.36;100.00
37634;BME280;32048;49.902;22.508;2023-02-21T05:26:12;97606.78;;;8.33;100.00
37634;BME280;32048;49.902;22.508;2023-02-21T05:28:40;97619.00;;;8.34;100.00
37634;BME280;32048;49.902;22.508;2023-02-21T05:31:07;97605.94;;;8.32;100.00
37634;BME280;32048;49.902;22.508;2023-02-21T05:33:34;97614.00;;;8.29;100.00
37634;BME280;32048;49.902;22.508;2023-02-21T05:36:01;97623.19;;;8.22;100.00
37634;BME280;32048;49.902;22.508;2023-02-21T05:38:29;97608.47;;;8.20;100.00
37634;BME280;32048;49.902;22.508;2023-02-21T05:40:56;97615.78;;;8.15;100.00
37634;BME280;32048;49.902;22.508;2023-02-21T05:43:23;97604.44;;;8.14;100.00
37634;BME280;32048;49.902;22.508;2023-02-21T05:45:51;97612.88;;;8.19;100.00
37634;BME280;32048;49.902;22.508;2023-02-21T05:48:19;97626.22;;;8.16;100.00
37634;BME280;32048;49.902;22.508;2023-02-21T05:50:46;97627.81;;;8.19;100.00
37634;BME280;32048;49.902;22.508;2023-02-21T05:53:13;97596.06;;;8.22;100.00
37634;BME280;32048;49.902;22.508;2023-02-21T05:55:40;97603.59;;;8.28;100.00
37634;BME280;32048;49.902;22.508;2023-02-21T05:58:07;97610.72;;;8.26;100.00
37634;BME280;32048;49.902;22.508;2023-02-21T06:00:34;97623.78;;;8.27;100.00
37634;BME280;32048;49.902;22.508;2023-02-21T06:03:01;97625.38;;;8.30;100.00
37634;BME280;32048;49.902;22.508;2023-02-21T06:05:30;97615.03;;;8.27;100.00
37634;BME280;32048;49.902;22.508;2023-02-21T06:07:58;97615.69;;;8.30;100.00
37634;BME280;32048;49.902;22.508;2023-02-21T06:10:25;97616.75;;;8.28;100.00
37634;BME280;32048;49.902;22.508;2023-02-21T06:12:52;97602.09;;;8.24;100.00
37634;BME280;32048;49.902;22.508;2023-02-21T06:15:19;97632.41;;;8.29;100.00
37634;BME280;32048;49.902;22.508;2023-02-21T06:17:46;97636.84;;;8.29;100.00
37634;BME280;32048;49.902;22.508;2023-02-21T06:20:14;97647.75;;;8.37;100.00
37634;BME280;32048;49.902;22.508;2023-02-21T06:22:43;97660.72;;;8.40;100.00
37634;BME280;32048;49.902;22.508;2023-02-21T06:25:10;97662.09;;;8.31;100.00
37634;BME280;32048;49.902;22.508;2023-02-21T06:27:37;97644.25;;;8.22;100.00
37634;BME280;32048;49.902;22.508;2023-02-21T06:30:05;97653.38;;;8.17;100.00
37634;BME280;32048;49.902;22.508;2023-02-21T06:32:32;97648.94;;;8.03;100.00
37634;BME280;32048;49.902;22.508;2023-02-21T06:35:00;97643.00;;;7.99;100.00
37634;BME280;32048;49.902;22.508;2023-02-21T06:37:27;97660.91;;;7.93;100.00
37634;BME280;32048;49.902;22.508;2023-02-21T06:39:54;97660.22;;;7.89;100.00
37634;BME280;32048;49.902;22.508;2023-02-21T06:42:21;97654.34;;;7.85;100.00
37634;BME280;32048;49.902;22.508;2023-02-21T06:44:49;97666.22;;;7.77;100.00
37634;BME280;32048;49.902;22.508;2023-02-21T06:47:17;97651.28;;;7.77;100.00
37634;BME280;32048;49.902;22.508;2023-02-21T06:49:44;97664.44;;;7.77;100.00
37634;BME280;32048;49.902;22.508;2023-02-21T06:52:12;97660.88;;;7.78;100.00
37634;BME280;32048;49.902;22.508;2023-02-21T06:54:39;97668.84;;;7.77;100.00
37634;BME280;32048;49.902;22.508;2023-02-21T06:57:06;97671.66;;;7.74;100.00
37634;BME280;32048;49.902;22.508;2023-02-21T06:59:33;97670.31;;;7.66;100.00
37634;BME280;32048;49.902;22.508;2023-02-21T07:02:00;97665.16;;;7.65;100.00
37634;BME280;32048;49.902;22.508;2023-02-21T07:04:28;97665.59;;;7.57;100.00
37634;BME280;32048;49.902;22.508;2023-02-21T07:06:55;97671.22;;;7.51;100.00
37634;BME280;32048;49.902;22.508;2023-02-21T07:09:22;97662.47;;;7.50;100.00
37634;BME280;32048;49.902;22.508;2023-02-21T07:11:49;97668.81;;;7.46;100.00
37634;BME280;32048;49.902;22.508;2023-02-21T07:14:17;97668.75;;;7.48;100.00
37634;BME280;32048;49.902;22.508;2023-02-21T07:16:44;97660.22;;;7.44;100.00
37634;BME280;32048;49.902;22.508;2023-02-21T07:19:11;97666.56;;;7.40;100.00
37634;BME280;32048;49.902;22.508;2023-02-21T07:21:42;97654.34;;;7.39;100.00
37634;BME280;32048;49.902;22.508;2023-02-21T07:24:09;97664.09;;;7.37;100.00
37634;BME280;32048;49.902;22.508;2023-02-21T07:26:37;97663.50;;;7.32;100.00
37634;BME280;32048;49.902;22.508;2023-02-21T07:29:05;97656.41;;;7.34;100.00
37634;BME280;32048;49.902;22.508;2023-02-21T07:31:32;97672.06;;;7.36;100.00
37634;BME280;32048;49.902;22.508;2023-02-21T07:33:59;97668.31;;;7.40;100.00
37634;BME280;32048;49.902;22.508;2023-02-21T07:36:27;97668.47;;;7.53;100.00
37634;BME280;32048;49.902;22.508;2023-02-21T07:38:54;97655.50;;;7.65;100.00
37634;BME280;32048;49.902;22.508;2023-02-21T07:41:21;97671.63;;;7.89;100.00
37634;BME280;32048;49.902;22.508;2023-02-21T07:43:48;97653.16;;;8.05;100.00
37634;BME280;32048;49.902;22.508;2023-02-21T07:46:17;97666.66;;;8.13;100.00
37634;BME280;32048;49.902;22.508;2023-02-21T07:48:45;97675.59;;;8.11;100.00
37634;BME280;32048;49.902;22.508;2023-02-21T07:51:12;97673.25;;;8.06;100.00
37634;BME280;32048;49.902;22.508;2023-02-21T07:53:40;97676.75;;;7.91;100.00
37634;BME280;32048;49.902;22.508;2023-02-21T07:56:07;97632.63;;;7.82;100.00
37634;BME280;32048;49.902;22.508;2023-02-21T07:58:34;97666.03;;;7.80;100.00
37634;BME280;32048;49.902;22.508;2023-02-21T08:01:03;97660.00;;;7.78;100.00
37634;BME280;32048;49.902;22.508;2023-02-21T08:03:31;97648.41;;;7.82;100.00
37634;BME280;32048;49.902;22.508;2023-02-21T08:05:58;97677.16;;;7.85;100.00
37634;BME280;32048;49.902;22.508;2023-02-21T08:08:25;97666.94;;;7.95;100.00
37634;BME280;32048;49.902;22.508;2023-02-21T08:10:53;97671.38;;;8.08;100.00
37634;BME280;32048;49.902;22.508;2023-02-21T08:13:20;97662.38;;;8.12;100.00
37634;BME280;32048;49.902;22.508;2023-02-21T08:15:47;97688.38;;;8.03;100.00
37634;BME280;32048;49.902;22.508;2023-02-21T08:18:19;97691.28;;;7.82;100.00
37634;BME280;32048;49.902;22.508;2023-02-21T08:20:51;97707.72;;;7.56;100.00
37634;BME280;32048;49.902;22.508;2023-02-21T08:23:18;97710.19;;;7.43;100.00
37634;BME280;32048;49.902;22.508;2023-02-21T08:25:46;97702.81;;;7.34;100.00
37634;BME280;32048;49.902;22.508;2023-02-21T08:28:13;97714.69;;;7.25;100.00
37634;BME280;32048;49.902;22.508;2023-02-21T08:30:41;97706.38;;;7.17;100.00
37634;BME280;32048;49.902;22.508;2023-02-21T08:33:08;97708.34;;;7.13;100.00
37634;BME280;32048;49.902;22.508;2023-02-21T08:35:35;97705.97;;;7.08;100.00
37634;BME280;32048;49.902;22.508;2023-02-21T08:38:02;97706.63;;;7.12;100.00
37634;BME280;32048;49.902;22.508;2023-02-21T08:40:31;97721.03;;;7.21;100.00
37634;BME280;32048;49.902;22.508;2023-02-21T08:42:59;97726.28;;;7.37;100.00
37634;BME280;32048;49.902;22.508;2023-02-21T08:45:27;97726.28;;;7.53;100.00
37634;BME280;32048;49.902;22.508;2023-02-21T08:47:56;97717.78;;;7.63;100.00
37634;BME280;32048;49.902;22.508;2023-02-21T08:50:25;97711.66;;;8.09;100.00
37634;BME280;32048;49.902;22.508;2023-02-21T08:52:53;97728.75;;;8.46;100.00
37634;BME280;32048;49.902;22.508;2023-02-21T08:55:21;97724.94;;;8.81;100.00
37634;BME280;32048;49.902;22.508;2023-02-21T08:57:50;97727.38;;;8.84;100.00
37634;BME280;32048;49.902;22.508;2023-02-21T09:00:20;97732.16;;;8.91;100.00
37634;BME280;32048;49.902;22.508;2023-02-21T09:02:50;97713.47;;;9.10;100.00
37634;BME280;32048;49.902;22.508;2023-02-21T09:05:21;97746.25;;;9.19;100.00
37634;BME280;32048;49.902;22.508;2023-02-21T09:07:54;97736.13;;;9.13;100.00
37634;BME280;32048;49.902;22.508;2023-02-21T09:10:26;97761.03;;;8.93;100.00
37634;BME280;32048;49.902;22.508;2023-02-21T09:12:53;97751.53;;;8.76;100.00
37634;BME280;32048;49.902;22.508;2023-02-21T09:15:21;97775.50;;;8.71;100.00
37634;BME280;32048;49.902;22.508;2023-02-21T09:17:48;97758.59;;;8.76;100.00
37634;BME280;32048;49.902;22.508;2023-02-21T09:20:20;97766.28;;;9.07;100.00
37634;BME280;32048;49.902;22.508;2023-02-21T09:22:48;97764.06;;;9.57;100.00
37634;BME280;32048;49.902;22.508;2023-02-21T09:25:18;97745.28;;;10.43;100.00
37634;BME280;32048;49.902;22.508;2023-02-21T09:27:45;97746.38;;;10.79;100.00
37634;BME280;32048;49.902;22.508;2023-02-21T09:30:18;97754.91;;;11.08;99.37
37634;BME280;32048;49.902;22.508;2023-02-21T09:32:47;97768.19;;;11.07;96.33
37634;BME280;32048;49.902;22.508;2023-02-21T09:35:15;97771.84;;;11.42;98.66
37634;BME280;32048;49.902;22.508;2023-02-21T09:37:43;97769.22;;;12.03;91.38
37634;BME280;32048;49.902;22.508;2023-02-21T09:40:31;97762.66;;;12.44;89.39
37634;BME280;32048;49.902;22.508;2023-02-21T09:43:00;97783.22;;;12.76;85.03
37634;BME280;32048;49.902;22.508;2023-02-21T09:45:34;97791.91;;;12.19;85.14
37634;BME280;32048;49.902;22.508;2023-02-21T09:48:10;97801.34;;;11.36;89.95
37634;BME280;32048;49.902;22.508;2023-02-21T09:50:52;97787.78;;;10.78;93.17
37634;BME280;32048;49.902;22.508;2023-02-21T09:53:25;97785.72;;;10.44;95.75
37634;BME280;32048;49.902;22.508;2023-02-21T09:55:59;97787.38;;;10.05;96.69
37634;BME280;32048;49.902;22.508;2023-02-21T09:58:30;97790.69;;;9.67;100.00
37634;BME280;32048;49.902;22.508;2023-02-21T10:01:02;97794.03;;;9.42;100.00
37634;BME280;32048;49.902;22.508;2023-02-21T10:12:28;97794.16;;;8.97;100.00
37634;BME280;32048;49.902;22.508;2023-02-21T10:20:41;97786.84;;;8.58;100.00
37634;BME280;32048;49.902;22.508;2023-02-21T10:23:21;97814.00;;;8.44;100.00
37634;BME280;32048;49.902;22.508;2023-02-21T10:25:54;97814.75;;;8.30;100.00
37634;BME280;32048;49.902;22.508;2023-02-21T10:28:25;97826.66;;;8.21;100.00
37634;BME280;32048;49.902;22.508;2023-02-21T10:30:57;97828.78;;;8.15;100.00
37634;BME280;32048;49.902;22.508;2023-02-21T10:33:25;97818.13;;;8.02;100.00
37634;BME280;32048;49.902;22.508;2023-02-21T10:35:52;97821.75;;;7.99;100.00
37634;BME280;32048;49.902;22.508;2023-02-21T10:38:24;97837.28;;;8.04;100.00
37634;BME280;32048;49.902;22.508;2023-02-21T10:40:53;97834.31;;;8.10;100.00
37634;BME280;32048;49.902;22.508;2023-02-21T10:43:33;97840.75;;;8.04;100.00
37634;BME280;32048;49.902;22.508;2023-02-21T10:48:34;97831.06;;;8.05;100.00
37634;BME280;32048;49.902;22.508;2023-02-21T10:51:10;97829.94;;;8.71;100.00
37634;BME280;32048;49.902;22.508;2023-02-21T10:53:41;97833.50;;;9.70;100.00
37634;BME280;32048;49.902;22.508;2023-02-21T10:58:52;97847.13;;;10.98;100.00
37634;BME280;32048;49.902;22.508;2023-02-21T11:04:21;97854.19;;;10.72;100.00
37634;BME280;32048;49.902;22.508;2023-02-21T11:06:53;97847.56;;;10.39;100.00
37634;BME280;32048;49.902;22.508;2023-02-21T11:09:31;97830.44;;;10.32;99.27
37634;BME280;32048;49.902;22.508;2023-02-21T11:12:22;97844.00;;;10.53;98.56
37634;BME280;32048;49.902;22.508;2023-02-21T11:19:58;97854.75;;;11.29;89.65
37634;BME280;32048;49.902;22.508;2023-02-21T11:30:34;97857.06;;;12.57;85.42
37634;BME280;32048;49.902;22.508;2023-02-21T11:33:03;97868.84;;;12.88;78.94
37634;BME280;32048;49.902;22.508;2023-02-21T11:35:46;97874.22;;;12.75;79.31
37634;BME280;32048;49.902;22.508;2023-02-21T11:40:59;97871.38;;;12.30;81.15
37634;BME280;32048;49.902;22.508;2023-02-21T11:43:27;97874.38;;;12.25;83.15
37634;BME280;32048;49.902;22.508;2023-02-21T11:46:19;97860.78;;;12.06;83.21
37634;BME280;32048;49.902;22.508;2023-02-21T11:48:54;97873.97;;;12.19;84.57
37634;BME280;32048;49.902;22.508;2023-02-21T11:51:46;97870.16;;;12.23;84.77
37634;BME280;32048;49.902;22.508;2023-02-21T11:54:14;97871.75;;;12.13;85.07
37634;BME280;32048;49.902;22.508;2023-02-21T11:56:53;97875.41;;;11.99;85.82
37634;BME280;32048;49.902;22.508;2023-02-21T12:02:35;97876.63;;;11.69;85.36
37634;BME280;32048;49.902;22.508;2023-02-21T12:20:02;97896.00;;;11.31;78.29
37634;BME280;32048;49.902;22.508;2023-02-21T12:22:40;97892.81;;;11.64;77.13
37634;BME280;32048;49.902;22.508;2023-02-21T12:27:51;97905.88;;;12.65;68.22
37634;BME280;32048;49.902;22.508;2023-02-21T12:46:34;97910.16;;;10.37;70.33
37634;BME280;32048;49.902;22.508;2023-02-21T12:52:01;97915.94;;;11.10;64.56
37634;BME280;32048;49.902;22.508;2023-02-21T12:57:16;97933.91;;;11.81;56.69
37634;BME280;32048;49.902;22.508;2023-02-21T13:02:38;97918.84;;;12.33;53.72
37634;BME280;32048;49.902;22.508;2023-02-21T13:05:17;97909.06;;;11.97;53.60
37634;BME280;32048;49.902;22.508;2023-02-21T13:07:56;97912.00;;;12.18;54.98
37634;BME280;32048;49.902;22.508;2023-02-21T13:10:30;97904.34;;;12.74;53.30
37634;BME280;32048;49.902;22.508;2023-02-21T13:15:29;97906.44;;;12.93;50.76
37634;BME280;32048;49.902;22.508;2023-02-21T13:20:33;97911.59;;;12.11;53.61
37634;BME280;32048;49.902;22.508;2023-02-21T13:28:41;97916.56;;;10.88;55.00
37634;BME280;32048;49.902;22.508;2023-02-21T13:31:41;97913.94;;;10.60;55.30
37634;BME280;32048;49.902;22.508;2023-02-21T13:34:09;97904.53;;;10.29;55.63
37634;BME280;32048;49.902;22.508;2023-02-21T13:36:45;97914.06;;;10.03;55.52
37634;BME280;32048;49.902;22.508;2023-02-21T13:41:45;97931.91;;;9.85;59.95
37634;BME280;32048;49.902;22.508;2023-02-21T13:47:14;97921.06;;;10.46;58.12
37634;BME280;32048;49.902;22.508;2023-02-21T13:49:49;97921.00;;;10.33;58.32
37634;BME280;32048;49.902;22.508;2023-02-21T14:02:58;97942.72;;;9.66;63.04
37634;BME280;32048;49.902;22.508;2023-02-21T14:08:25;97939.91;;;9.69;64.30
37634;BME280;32048;49.902;22.508;2023-02-21T14:10:55;97934.06;;;9.78;63.65
37634;BME280;32048;49.902;22.508;2023-02-21T14:16:15;97925.66;;;10.29;62.37
37634;BME280;32048;49.902;22.508;2023-02-21T14:19:00;97934.50;;;10.55;61.83
37634;BME280;32048;49.902;22.508;2023-02-21T14:21:45;97936.34;;;10.68;61.09
37634;BME280;32048;49.902;22.508;2023-02-21T14:24:18;97940.06;;;10.78;60.75
37634;BME280;32048;49.902;22.508;2023-02-21T14:26:56;97936.50;;;10.92;60.77
37634;BME280;32048;49.902;22.508;2023-02-21T14:32:40;97932.69;;;11.36;59.89
37634;BME280;32048;49.902;22.508;2023-02-21T14:35:44;97936.72;;;11.41;57.71
37634;BME280;32048;49.902;22.508;2023-02-21T14:38:21;97934.28;;;11.51;58.94
37634;BME280;32048;49.902;22.508;2023-02-21T14:54:57;97955.69;;;10.68;63.17
37634;BME280;32048;49.902;22.508;2023-02-21T15:00:10;97958.72;;;10.20;63.08
37634;BME280;32048;49.902;22.508;2023-02-21T15:08:22;97989.88;;;9.42;65.59
37634;BME280;32048;49.902;22.508;2023-02-21T15:11:00;98003.28;;;9.23;66.09
37634;BME280;32048;49.902;22.508;2023-02-21T15:13:31;97991.72;;;8.95;67.26
37634;BME280;32048;49.902;22.508;2023-02-21T15:16:02;97999.31;;;8.86;68.43
37634;BME280;32048;49.902;22.508;2023-02-21T15:18:32;98006.97;;;8.74;69.38
37634;BME280;32048;49.902;22.508;2023-02-21T15:23:42;97996.09;;;8.49;70.88
37634;BME280;32048;49.902;22.508;2023-02-21T15:26:21;98015.47;;;8.48;72.25
37634;BME280;32048;49.902;22.508;2023-02-21T15:29:13;98004.84;;;8.49;71.65
37634;BME280;32048;49.902;22.508;2023-02-21T15:34:40;98007.84;;;8.43;72.45
37634;BME280;32048;49.902;22.508;2023-02-21T15:37:25;98002.72;;;8.40;73.74
37634;BME280;32048;49.902;22.508;2023-02-21T15:39:57;98010.84;;;8.36;74.54
37634;BME280;32048;49.902;22.508;2023-02-21T15:42:26;98013.41;;;8.37;74.29
37634;BME280;32048;49.902;22.508;2023-02-21T15:44:59;98016.28;;;8.32;75.16
37634;BME280;32048;49.902;22.508;2023-02-21T15:47:28;98018.13;;;8.30;75.75
37634;BME280;32048;49.902;22.508;2023-02-21T15:50:12;98019.31;;;8.25;75.77
37634;BME280;32048;49.902;22.508;2023-02-21T15:52:43;98028.31;;;8.21;76.36
37634;BME280;32048;49.902;22.508;2023-02-21T15:57:46;98035.16;;;8.07;76.40
37634;BME280;32048;49.902;22.508;2023-02-21T16:02:50;98047.88;;;7.99;75.40
37634;BME280;32048;49.902;22.508;2023-02-21T16:05:26;98051.56;;;7.95;76.06
37634;BME280;32048;49.902;22.508;2023-02-21T16:08:02;98052.59;;;7.93;76.84
37634;BME280;32048;49.902;22.508;2023-02-21T16:10:31;98062.09;;;7.95;76.34
37634;BME280;32048;49.902;22.508;2023-02-21T16:13:01;98067.59;;;7.90;76.63
37634;BME280;32048;49.902;22.508;2023-02-21T16:15:31;98065.97;;;7.88;76.90
37634;BME280;32048;49.902;22.508;2023-02-21T16:18:02;98076.81;;;7.82;78.09
37634;BME280;32048;49.902;22.508;2023-02-21T16:20:33;98090.19;;;7.77;78.77
37634;BME280;32048;49.902;22.508;2023-02-21T16:26:16;98082.31;;;7.77;78.92
37634;BME280;32048;49.902;22.508;2023-02-21T16:28:46;98086.72;;;7.77;78.62
37634;BME280;32048;49.902;22.508;2023-02-21T16:31:15;98081.94;;;7.67;78.71
37634;BME280;32048;49.902;22.508;2023-02-21T16:33:43;98092.75;;;7.61;78.73